Terminal Aerodrome Forecast
Issued by NWS

Home | Current Version | Previous Version | Text Only | Print | Product List | Glossary On
Versions: 1 2 3 4 5 6 7 8 9 10 11 12 13 14 15 16 17 18 19 20 21 22 23 24 25 26 27
000
FTUS45 KGJT 230706 AAB
TAFASE
TAF AMD
KASE 230706Z 2307/2406 23007KT P6SM VCSH FEW014 OVC070
      WS003/23035KT
      TEMPO 2308/2310 3SM -SN BR BKN008 OVC025
     FM231000 19004KT 5SM -SN OVC025 WS020/23035KT
     FM231600 21006KT 2SM -SN OVC020 WS020/24045KT
     FM231900 22007KT 1 1/2SM -SNRA OVC025 WS020/24050KT
     FM240000 28005KT 1SM -SN OVC015=

USA.gov is the U.S. government's official web portal to all federal, state and local government web resources and services.